Lake Clarke, Florida
Current Conditions -  °F | °C
As of 6:53 PM on Monday 22 Dec 2014 (Local Time) from KPBI Reporting Station
Broken Clouds Broken Clouds  
Wind Chill: 77°   Ceiling: 25000
Heat Index: 79°   Visibility: 10mi
Dew Point: 70°   Wind: 10mph
Humidity: 79%   Direction: 160°SSE
Pressure: 29.95"   Gusts: NA
Location:  26.6662°N, 80.0908°W
Report Text: KPBI 222353Z 16009KT 10SM FEW100 BKN250 25/21 A2995 RMK AO2 SLP141 T02500211 10289 20244 51007
Loading
Personal Weather Stations






























Interactive Weather Map New forecast layout! Learn more

10-Day Weather Forecast

Advertisements
Track Severe Weather on mobile